Time;durP1;ratioP1;P1;durP2;ratioP2;P2;SDS_P1;SDS_P2;PMS_P1;PMS_P2;Temp;Humidity;BMP_temperature;BMP_pressure;BME280_temperature;BME280_humidity;BME280_pressure;Samples;Min_cycle;Max_cycle;Signal;HPM_P1;HPM_P2
2022/12/21 00:00:25;;;;;;;42.88;30.60;;;7.10;99.90;;;;;;6255420;28;20029;-80
2022/12/21 00:03:26;;;;;;;44.00;28.80;;;7.10;99.90;;;;;;6254212;28;20055;-81
2022/12/21 00:06:31;;;;;;;41.25;28.38;;;7.30;99.90;;;;;;6258965;28;20049;-81
2022/12/21 00:09:33;;;;;;;48.38;28.88;;;7.40;99.90;;;;;;6259240;28;20046;-80
2022/12/21 00:12:35;;;;;;;49.33;30.27;;;7.40;99.90;;;;;;6257984;28;20053;-80
2022/12/21 00:15:38;;;;;;;43.92;30.10;;;7.50;99.90;;;;;;6252367;28;20124;-80
2022/12/21 00:18:40;;;;;;;40.55;28.17;;;7.60;99.90;;;;;;6249964;28;20427;-80
2022/12/21 00:21:43;;;;;;;40.92;27.10;;;7.60;99.90;;;;;;6251233;28;20053;-81
2022/12/21 00:24:45;;;;;;;47.10;28.77;;;7.60;99.90;;;;;;6251047;28;20037;-81
2022/12/21 00:27:46;;;;;;;44.50;27.00;;;7.70;99.90;;;;;;6250440;28;20050;-80
2022/12/21 00:30:48;;;;;;;39.22;26.35;;;7.70;99.90;;;;;;6250869;28;20049;-81
2022/12/21 00:33:50;;;;;;;44.35;26.20;;;7.70;99.90;;;;;;6251067;28;20052;-81
2022/12/21 00:36:54;;;;;;;38.80;22.83;;;7.70;99.90;;;;;;6251783;28;20040;-81
2022/12/21 00:39:56;;;;;;;32.80;22.60;;;7.70;99.90;;;;;;6249491;28;20061;-80
2022/12/21 00:42:58;;;;;;;32.33;21.50;;;7.80;99.90;;;;;;6250492;28;20113;-81
2022/12/21 00:45:59;;;;;;;23.67;19.00;;;8.00;99.90;;;;;;6256980;28;20058;-81
2022/12/21 00:49:03;;;;;;;25.10;14.77;;;8.20;99.90;;;;;;6259724;28;20064;-80
2022/12/21 00:52:06;;;;;;;18.55;13.23;;;8.40;99.90;;;;;;6258867;28;20064;-82
2022/12/21 00:55:08;;;;;;;24.17;13.55;;;8.60;99.90;;;;;;6262031;28;20055;-80
2022/12/21 00:58:10;;;;;;;20.98;13.90;;;8.80;99.90;;;;;;6258234;28;20053;-81
2022/12/21 01:01:14;;;;;;;18.85;13.77;;;9.00;99.90;;;;;;6252036;28;20050;-81
2022/12/21 01:04:16;;;;;;;18.83;12.35;;;9.10;99.90;;;;;;6251563;28;20041;-80
2022/12/21 01:07:19;;;;;;;23.50;12.13;;;9.20;99.90;;;;;;6251163;28;20064;-81
2022/12/21 01:10:20;;;;;;;20.25;12.68;;;9.40;99.90;;;;;;6251681;28;20052;-81
2022/12/21 01:13:22;;;;;;;28.65;14.02;;;9.50;99.90;;;;;;6253373;28;20050;-80
2022/12/21 01:16:26;;;;;;;15.45;9.55;;;9.50;99.90;;;;;;6251835;28;20056;-81
2022/12/21 01:19:28;;;;;;;13.70;8.95;;;9.70;99.90;;;;;;6251723;28;20060;-80
2022/12/21 01:22:31;;;;;;;13.40;8.70;;;9.80;99.90;;;;;;6252904;28;20041;-81
2022/12/21 01:25:33;;;;;;;13.55;8.90;;;9.80;99.90;;;;;;6255341;28;20065;-82
2022/12/21 01:28:35;;;;;;;12.27;7.07;;;9.90;99.90;;;;;;6254470;28;20558;-80
2022/12/21 01:31:37;;;;;;;12.65;7.90;;;10.10;99.90;;;;;;6254298;28;20057;-82
2022/12/21 01:34:38;;;;;;;9.60;7.35;;;10.20;99.90;;;;;;6254207;28;20049;-82
2022/12/21 01:37:41;;;;;;;8.52;6.38;;;10.20;99.90;;;;;;6252732;28;20053;-82
2022/12/21 01:40:43;;;;;;;9.20;6.75;;;10.30;99.90;;;;;;6252815;28;20041;-82
2022/12/21 01:43:48;;;;;;;15.35;6.30;;;10.30;99.90;;;;;;6243792;28;20042;-81
2022/12/21 01:46:49;;;;;;;10.10;6.88;;;10.40;99.90;;;;;;6253441;28;20041;-80
2022/12/21 01:49:56;;;;;;;13.85;5.72;;;10.50;99.90;;;;;;6254252;28;20045;-83
2022/12/21 01:53:03;;;;;;;7.93;5.47;;;10.60;99.90;;;;;;6252185;28;20419;-81
2022/12/21 01:56:09;;;;;;;11.85;5.63;;;10.60;99.90;;;;;;6251199;28;20049;-82
2022/12/21 01:59:17;;;;;;;11.82;5.05;;;10.60;99.90;;;;;;6250079;28;20068;-82
2022/12/21 02:02:21;;;;;;;12.63;5.25;;;10.70;99.90;;;;;;6250723;28;20049;-82
2022/12/21 02:05:30;;;;;;;7.65;5.45;;;10.70;99.90;;;;;;6252772;28;20050;-82
2022/12/21 02:08:33;;;;;;;8.88;4.60;;;10.80;99.90;;;;;;6249181;28;20072;-82
2022/12/21 02:11:35;;;;;;;6.82;4.70;;;10.80;99.90;;;;;;6250722;28;20415;-81
2022/12/21 02:14:41;;;;;;;8.27;4.55;;;10.80;99.90;;;;;;6250869;28;20450;-82
2022/12/21 02:17:52;;;;;;;5.15;4.55;;;10.80;99.90;;;;;;6251070;28;20084;-82
2022/12/21 02:21:25;;;;;;;5.07;4.10;;;10.80;99.90;;;;;;6252665;28;20076;-83
2022/12/21 02:25:02;;;;;;;6.40;4.72;;;10.90;99.90;;;;;;6250096;28;20045;-82
2022/12/21 02:28:33;;;;;;;8.60;3.92;;;10.90;99.90;;;;;;6248360;28;20050;-82
2022/12/21 02:31:46;;;;;;;4.50;3.60;;;10.90;99.90;;;;;;6250340;28;20045;-82
2022/12/21 02:34:58;;;;;;;6.05;4.15;;;10.90;99.90;;;;;;6243844;28;20415;-81
2022/12/21 02:38:08;;;;;;;8.93;3.97;;;10.90;99.90;;;;;;6250667;28;20053;-81
2022/12/21 02:41:18;;;;;;;5.43;3.58;;;10.90;99.90;;;;;;6251894;28;20056;-81
2022/12/21 02:44:26;;;;;;;6.68;3.22;;;10.90;99.90;;;;;;6251103;28;20042;-82
2022/12/21 02:47:36;;;;;;;5.78;3.78;;;10.90;99.90;;;;;;6251360;28;20156;-81
2022/12/21 02:50:43;;;;;;;3.63;3.20;;;10.90;99.90;;;;;;6252541;28;20978;-82
2022/12/21 02:53:46;;;;;;;9.05;4.00;;;11.00;99.90;;;;;;6253058;28;20125;-82
2022/12/21 02:56:48;;;;;;;6.60;3.22;;;10.90;99.90;;;;;;6252933;28;20049;-82
2022/12/21 02:59:50;;;;;;;4.40;3.33;;;10.90;99.90;;;;;;6252817;28;20052;-82
2022/12/21 03:07:03;;;;;;;9.15;3.35;;;10.90;99.90;;;;;;6253287;28;20041;-81
2022/12/21 03:10:12;;;;;;;3.67;2.97;;;10.90;99.90;;;;;;6246286;28;20049;-81
2022/12/21 03:13:21;;;;;;;6.25;3.53;;;10.90;99.90;;;;;;6253035;28;20061;-82
2022/12/21 03:16:30;;;;;;;7.28;2.97;;;10.90;99.90;;;;;;6253108;28;20045;-81
2022/12/21 03:19:41;;;;;;;7.22;3.63;;;11.00;99.90;;;;;;6252384;28;20053;-82
2022/12/21 03:22:49;;;;;;;6.00;2.70;;;11.00;99.90;;;;;;6252672;28;20046;-82
2022/12/21 03:25:54;;;;;;;;;;;11.00;99.90;;;;;;6252811;28;20056;-83
2022/12/21 03:29:00;;;;;;;4.25;3.17;;;11.00;99.90;;;;;;6253172;28;19928;-82
2022/12/21 03:32:08;;;;;;;5.85;3.35;;;11.00;99.90;;;;;;6252834;28;20068;-82
2022/12/21 03:35:18;;;;;;;4.93;2.97;;;10.90;99.90;;;;;;6253182;28;20057;-82
2022/12/21 03:38:25;;;;;;;4.60;2.55;;;10.90;99.90;;;;;;6252398;28;20046;-82
2022/12/21 03:41:31;;;;;;;7.40;3.67;;;10.90;99.90;;;;;;6259328;28;20049;-83
2022/12/21 03:44:38;;;;;;;6.97;3.47;;;11.00;99.90;;;;;;6258433;28;20045;-83
2022/12/21 03:47:46;;;;;;;5.97;3.17;;;10.90;99.90;;;;;;6260735;28;20049;-83
2022/12/21 03:50:52;;;;;;;7.35;3.50;;;10.90;99.90;;;;;;6260790;28;20045;-83
2022/12/21 03:54:02;;;;;;;4.72;3.15;;;10.90;99.90;;;;;;6266776;28;20059;-80
2022/12/21 03:57:04;;;;;;;3.85;2.85;;;10.90;99.90;;;;;;6258780;28;20053;-82
2022/12/21 04:00:10;;;;;;;7.60;3.22;;;11.00;99.90;;;;;;6254683;28;20054;-82
2022/12/21 04:03:17;;;;;;;6.85;3.35;;;11.00;99.90;;;;;;6255361;28;20056;-82
2022/12/21 04:06:23;;;;;;;11.27;2.87;;;11.00;99.90;;;;;;6255569;28;20048;-82
2022/12/21 04:09:24;;;;;;;6.68;3.35;;;11.00;99.90;;;;;;6253999;28;20315;-81
2022/12/21 04:12:40;;;;;;;5.32;3.20;;;11.00;99.90;;;;;;6254706;28;20057;-81
2022/12/21 04:28:56;;;;;;;6.32;3.17;;;11.00;99.90;;;;;;6252594;28;20041;-82
2022/12/21 04:31:58;;;;;;;7.15;3.17;;;11.00;99.90;;;;;;6253481;28;20057;-81
2022/12/21 04:35:00;;;;;;;9.57;3.72;;;11.00;99.90;;;;;;6253973;28;20144;-82
2022/12/21 04:38:02;;;;;;;7.93;3.85;;;11.00;99.90;;;;;;6252850;28;20049;-81
2022/12/21 04:41:04;;;;;;;6.45;3.35;;;11.00;99.90;;;;;;6253560;28;20073;-81
2022/12/21 04:44:06;;;;;;;6.03;3.28;;;11.00;99.90;;;;;;6253480;28;20463;-82
2022/12/21 04:47:07;;;;;;;4.45;3.20;;;11.00;99.90;;;;;;6252465;28;20049;-82
2022/12/21 04:50:10;;;;;;;7.45;4.22;;;11.00;99.90;;;;;;6251176;28;20049;-82
2022/12/21 04:53:13;;;;;;;5.43;4.03;;;11.00;99.90;;;;;;6254121;28;20060;-81
2022/12/21 04:56:16;;;;;;;5.38;3.35;;;11.00;99.90;;;;;;6254021;28;20045;-81
2022/12/21 04:59:17;;;;;;;3.97;3.15;;;11.00;99.90;;;;;;6252228;28;20045;-81
2022/12/21 05:02:19;;;;;;;6.95;3.63;;;11.00;99.90;;;;;;6253701;28;20046;-83
2022/12/21 05:05:20;;;;;;;7.68;3.50;;;11.00;99.90;;;;;;6252859;28;20060;-81
2022/12/21 05:08:23;;;;;;;9.35;3.38;;;11.00;99.90;;;;;;6252410;28;20046;-81
2022/12/21 05:11:25;;;;;;;4.65;3.78;;;11.00;99.90;;;;;;6253215;28;20045;-82
2022/12/21 05:14:27;;;;;;;6.50;4.60;;;11.00;99.90;;;;;;6253250;28;20045;-82
2022/12/21 05:17:29;;;;;;;5.50;3.70;;;11.00;99.90;;;;;;6254617;28;20061;-82
2022/12/21 05:20:30;;;;;;;6.80;3.83;;;11.10;99.90;;;;;;6253285;28;20050;-81
2022/12/21 05:23:34;;;;;;;5.13;3.60;;;11.00;99.90;;;;;;6253842;28;20049;-80
2022/12/21 05:26:35;;;;;;;6.65;3.63;;;11.00;99.90;;;;;;6253305;28;20534;-81
2022/12/21 05:29:37;;;;;;;10.30;3.67;;;11.00;99.90;;;;;;6253597;28;20060;-81
2022/12/21 05:32:39;;;;;;;7.20;3.97;;;11.00;99.90;;;;;;6254600;28;20046;-80
2022/12/21 05:35:41;;;;;;;7.95;3.78;;;11.00;99.90;;;;;;6254771;28;20041;-81
2022/12/21 05:38:44;;;;;;;10.90;3.35;;;11.00;99.90;;;;;;6253981;28;20073;-82
2022/12/21 05:41:46;;;;;;;4.57;3.15;;;11.00;99.90;;;;;;6254812;28;20056;-82
2022/12/21 05:44:48;;;;;;;5.95;3.75;;;11.00;99.90;;;;;;6253846;28;20042;-81
2022/12/21 05:47:49;;;;;;;6.00;4.15;;;11.00;99.90;;;;;;6252025;28;20431;-81
2022/12/21 05:50:51;;;;;;;5.55;3.72;;;10.90;99.90;;;;;;6255096;28;20049;-81
2022/12/21 05:53:54;;;;;;;7.30;3.63;;;10.90;99.90;;;;;;6254541;28;20065;-81
2022/12/21 05:56:56;;;;;;;6.93;3.38;;;10.90;99.90;;;;;;6256151;28;20049;-82
2022/12/21 05:59:57;;;;;;;5.68;3.45;;;10.90;99.90;;;;;;6253532;28;20052;-81
2022/12/21 06:02:59;;;;;;;6.28;3.53;;;10.90;99.90;;;;;;6254618;28;20064;-82
2022/12/21 06:06:02;;;;;;;7.93;4.18;;;11.00;99.90;;;;;;6251767;28;20049;-81
2022/12/21 06:09:05;;;;;;;6.40;4.43;;;11.00;99.90;;;;;;6250416;28;20050;-81
2022/12/21 06:12:07;;;;;;;7.78;3.40;;;11.00;99.90;;;;;;6250762;28;20056;-80
2022/12/21 06:15:10;;;;;;;9.43;4.28;;;11.00;99.90;;;;;;6250820;28;20051;-81
2022/12/21 06:18:11;;;;;;;4.47;3.83;;;11.00;99.90;;;;;;6249371;28;20049;-81
2022/12/21 06:21:14;;;;;;;8.32;3.08;;;11.00;99.90;;;;;;6250351;28;20419;-81
2022/12/21 06:24:17;;;;;;;4.75;3.42;;;11.00;99.90;;;;;;6250328;28;20050;-81
2022/12/21 06:27:19;;;;;;;8.32;2.95;;;11.10;99.90;;;;;;6251862;28;20520;-80
2022/12/21 06:30:21;;;;;;;4.07;2.33;;;11.10;99.90;;;;;;6251010;28;20073;-79
2022/12/21 06:33:23;;;;;;;4.15;3.78;;;11.10;99.90;;;;;;6253129;28;20052;-80
2022/12/21 06:36:25;;;;;;;8.40;2.50;;;11.10;99.90;;;;;;6260819;28;20045;-81
2022/12/21 06:39:28;;;;;;;3.25;2.75;;;11.20;99.90;;;;;;6261740;28;20144;-81
2022/12/21 06:42:30;;;;;;;6.70;3.05;;;11.20;99.90;;;;;;6261892;28;20105;-81
2022/12/21 06:45:32;;;;;;;4.97;2.80;;;11.20;99.90;;;;;;6262687;28;20113;-81
2022/12/21 06:48:35;;;;;;;7.88;2.83;;;11.20;99.90;;;;;;6252694;28;20048;-80
2022/12/21 06:51:36;;;;;;;4.60;3.42;;;11.20;99.90;;;;;;6261165;28;20045;-82
2022/12/21 06:54:39;;;;;;;5.05;2.65;;;11.20;99.90;;;;;;6256331;28;20053;-80
2022/12/21 06:57:41;;;;;;;5.18;2.55;;;11.20;99.90;;;;;;6254544;28;20064;-81
2022/12/21 07:00:43;;;;;;;4.95;2.45;;;11.20;99.90;;;;;;6253446;28;20052;-80
2022/12/21 07:03:45;;;;;;;5.78;2.72;;;11.20;99.90;;;;;;6253641;28;20045;-81
2022/12/21 07:06:48;;;;;;;5.10;2.55;;;11.20;99.90;;;;;;6254881;28;20056;-80
2022/12/21 07:09:51;;;;;;;2.90;2.60;;;11.20;99.90;;;;;;6255425;28;20073;-80
2022/12/21 07:12:53;;;;;;;4.43;2.70;;;11.20;99.90;;;;;;6254450;28;20045;-80
2022/12/21 07:15:56;;;;;;;4.25;2.85;;;11.30;99.90;;;;;;6258625;28;20049;-80
2022/12/21 07:18:57;;;;;;;2.50;2.30;;;11.30;99.90;;;;;;6258777;28;20056;-80
2022/12/21 07:21:59;;;;;;;4.00;2.70;;;11.30;99.90;;;;;;6234625;28;20100;-79
2022/12/21 07:25:02;;;;;;;5.90;3.10;;;11.30;99.90;;;;;;6250128;28;20045;-80
2022/12/21 07:28:04;;;;;;;2.22;2.08;;;11.30;99.90;;;;;;6258819;28;20045;-80
2022/12/21 07:31:08;;;;;;;3.20;2.58;;;11.30;99.90;;;;;;6258950;28;20049;-79
2022/12/21 07:34:09;;;;;;;5.78;2.78;;;11.20;99.90;;;;;;6254645;28;20057;-79
2022/12/21 07:37:11;;;;;;;4.30;2.50;;;11.20;99.90;;;;;;6257845;28;20049;-79
2022/12/21 07:40:16;;;;;;;12.82;2.88;;;11.20;99.90;;;;;;6257206;28;20056;-80
2022/12/21 07:43:18;;;;;;;4.28;2.90;;;11.20;99.90;;;;;;6260291;28;20041;-80
2022/12/21 07:46:20;;;;;;;4.70;3.30;;;11.10;99.90;;;;;;6257962;28;20033;-80
2022/12/21 07:49:22;;;;;;;6.97;3.38;;;11.10;99.90;;;;;;6256171;28;20059;-79
2022/12/21 07:52:23;;;;;;;8.68;3.10;;;11.10;99.90;;;;;;6259270;28;20372;-80
2022/12/21 07:55:26;;;;;;;7.75;2.72;;;11.10;99.90;;;;;;6256366;28;20419;-82
2022/12/21 07:58:28;;;;;;;8.38;3.65;;;11.10;99.90;;;;;;6255904;28;20045;-79
2022/12/21 08:01:30;;;;;;;4.55;2.67;;;11.10;99.90;;;;;;6258246;28;20060;-80
2022/12/21 08:04:31;;;;;;;3.17;2.88;;;11.10;99.90;;;;;;6256001;28;20052;-81
2022/12/21 08:07:33;;;;;;;6.50;2.88;;;11.10;99.90;;;;;;6257261;28;20050;-81
2022/12/21 08:10:36;;;;;;;4.20;3.33;;;11.10;99.90;;;;;;6256288;28;20107;-79
2022/12/21 08:13:38;;;;;;;6.85;3.50;;;11.10;99.90;;;;;;6260738;28;20065;-80
2022/12/21 08:16:39;;;;;;;8.35;2.97;;;11.10;99.90;;;;;;6259107;28;20052;-80
2022/12/21 08:19:41;;;;;;;10.02;4.70;;;11.10;99.90;;;;;;6256751;28;20523;-82
2022/12/21 08:22:43;;;;;;;7.35;3.25;;;11.20;99.90;;;;;;6257032;28;20049;-79
2022/12/21 08:25:47;;;;;;;5.55;3.00;;;11.10;99.90;;;;;;6254750;28;20057;-79
2022/12/21 08:28:48;;;;;;;8.57;3.30;;;11.10;99.90;;;;;;6256301;28;20049;-80
2022/12/21 08:31:50;;;;;;;10.27;3.95;;;11.20;99.90;;;;;;6258337;28;20530;-81
2022/12/21 08:34:52;;;;;;;4.38;4.05;;;11.10;99.90;;;;;;6263821;28;20038;-80
2022/12/21 08:37:53;;;;;;;5.65;3.92;;;11.20;99.90;;;;;;6257977;28;20060;-80
2022/12/21 08:41:01;;;;;;;4.78;2.72;;;11.20;99.90;;;;;;6259906;28;20061;-80
2022/12/21 08:44:03;;;;;;;6.88;3.03;;;11.20;99.90;;;;;;6258943;28;20049;-80
2022/12/21 08:47:06;;;;;;;5.38;2.70;;;11.20;99.90;;;;;;6258512;28;20044;-80
2022/12/21 08:50:08;;;;;;;6.30;3.20;;;11.30;99.90;;;;;;6256300;28;20531;-80
2022/12/21 08:53:10;;;;;;;5.18;2.55;;;11.30;99.90;;;;;;6260300;28;20062;-80
2022/12/21 08:56:13;;;;;;;8.48;3.08;;;11.30;99.90;;;;;;6255493;28;20040;-80
2022/12/21 08:59:15;;;;;;;8.82;2.78;;;11.40;99.90;;;;;;6255189;28;20060;-80
2022/12/21 09:02:17;;;;;;;3.42;3.13;;;11.40;99.90;;;;;;6251490;28;20046;-80
2022/12/21 09:05:18;;;;;;;5.50;3.05;;;11.40;99.90;;;;;;6251051;28;20049;-80
2022/12/21 09:08:20;;;;;;;6.97;3.28;;;11.40;99.90;;;;;;6251217;28;20056;-79
2022/12/21 09:11:24;;;;;;;4.65;2.97;;;11.40;99.90;;;;;;6253810;28;20052;-80
2022/12/21 09:14:26;;;;;;;6.97;2.58;;;11.40;99.90;;;;;;6257871;28;20056;-81
2022/12/21 09:17:27;;;;;;;8.90;3.35;;;11.50;99.90;;;;;;6257456;28;20033;-83
2022/12/21 09:20:29;;;;;;;4.53;3.20;;;11.50;99.90;;;;;;6252933;28;20056;-82
2022/12/21 09:23:31;;;;;;;5.43;2.53;;;11.50;99.90;;;;;;6253197;28;20062;-83
2022/12/21 09:26:34;;;;;;;12.75;2.95;;;11.50;99.90;;;;;;6252789;28;20045;-82
2022/12/21 09:29:35;;;;;;;5.13;3.13;;;11.60;99.90;;;;;;6253323;28;20538;-81
2022/12/21 09:32:37;;;;;;;4.53;3.03;;;11.60;99.90;;;;;;6252815;28;20527;-82
2022/12/21 09:35:39;;;;;;;4.40;2.95;;;11.70;99.90;;;;;;6254291;28;20048;-82
2022/12/21 09:38:41;;;;;;;10.98;3.45;;;11.70;99.90;;;;;;6251568;28;20499;-82
2022/12/21 09:42:02;;;;;;;4.30;2.95;;;11.70;99.90;;;;;;6253748;28;20050;-82
2022/12/21 09:45:12;;;;;;;6.05;2.53;;;11.80;99.90;;;;;;6252952;28;20056;-82
2022/12/21 09:48:16;;;;;;;5.72;3.10;;;11.70;99.90;;;;;;6252284;28;20129;-83
2022/12/21 09:51:23;;;;;;;4.93;2.25;;;11.80;99.90;;;;;;6253408;28;20033;-83
2022/12/21 09:54:35;;;;;;;3.75;2.63;;;11.80;99.90;;;;;;6251409;28;20046;-82
2022/12/21 09:57:38;;;;;;;6.20;2.50;;;11.70;99.90;;;;;;6253994;28;20052;-82
2022/12/21 10:00:44;;;;;;;3.05;2.17;;;11.80;99.90;;;;;;6253646;28;20057;-80
2022/12/21 10:04:21;;;;;;;4.55;2.20;;;11.80;99.90;;;;;;6252562;28;20522;-81
2022/12/21 10:07:47;;;;;;;3.63;2.03;;;11.90;99.90;;;;;;6244162;28;20054;-81
2022/12/21 10:10:54;;;;;;;7.22;2.45;;;11.90;99.90;;;;;;6252177;28;20111;-80
2022/12/21 10:14:07;;;;;;;7.22;1.95;;;12.00;99.90;;;;;;6252056;28;20046;-80
2022/12/21 10:17:22;;;;;;;4.60;2.03;;;12.00;99.90;;;;;;6252785;28;20048;-81
2022/12/21 10:20:33;;;;;;;5.20;2.80;;;12.00;99.90;;;;;;6246731;28;20060;-80
2022/12/21 10:23:41;;;;;;;3.38;2.40;;;12.00;99.90;;;;;;6248668;28;20511;-80
2022/12/21 10:26:43;;;;;;;2.40;2.20;;;12.10;99.90;;;;;;6250489;28;20049;-81
2022/12/21 10:29:52;;;;;;;2.03;1.92;;;12.10;99.90;;;;;;6226818;28;20057;-81
2022/12/21 10:32:53;;;;;;;4.55;2.15;;;12.10;99.90;;;;;;6226455;28;20053;-79
2022/12/21 10:35:59;;;;;;;2.83;1.70;;;12.10;99.90;;;;;;6223755;28;20522;-80
2022/12/21 10:39:01;;;;;;;1.60;1.50;;;12.10;99.90;;;;;;6224837;28;20145;-81
2022/12/21 10:42:06;;;;;;;4.68;1.92;;;12.10;99.90;;;;;;6231362;28;20480;-81
2022/12/21 10:45:13;;;;;;;4.53;3.72;;;12.20;99.90;;;;;;6227115;28;20053;-80
2022/12/21 10:48:15;;;;;;;5.07;2.17;;;12.20;99.90;;;;;;6246892;28;20419;-82
2022/12/21 10:51:27;;;;;;;4.72;2.20;;;12.30;99.90;;;;;;6253367;28;20057;-82
2022/12/21 10:54:29;;;;;;;2.90;1.50;;;12.30;99.90;;;;;;6259159;28;20046;-78
2022/12/21 10:57:33;;;;;;;5.15;1.65;;;12.30;99.90;;;;;;6255531;28;20049;-80
2022/12/21 11:00:38;;;;;;;4.38;1.50;;;12.30;99.90;;;;;;6260218;28;20045;-82
2022/12/21 11:03:40;;;;;;;2.80;1.80;;;12.40;99.90;;;;;;6253397;28;20072;-79
2022/12/21 11:06:56;;;;;;;3.13;2.22;;;12.40;99.90;;;;;;6257963;28;20057;-78
2022/12/21 11:09:59;;;;;;;8.23;7.38;;;12.40;99.90;;;;;;6254049;28;20052;-81
2022/12/21 11:13:05;;;;;;;9.65;4.63;;;12.40;99.90;;;;;;6254160;28;20433;-81
2022/12/21 11:16:10;;;;;;;45.17;36.00;;;12.50;99.90;;;;;;6253782;28;20052;-81
2022/12/21 11:19:15;;;;;;;4.85;4.20;;;12.50;99.90;;;;;;6253938;28;20072;-81
2022/12/21 11:22:23;;;;;;;4.22;3.83;;;12.60;99.90;;;;;;6255159;28;20041;-81
2022/12/21 11:25:27;;;;;;;6.30;5.00;;;12.70;99.90;;;;;;6252880;28;20069;-80
2022/12/21 11:28:29;;;;;;;8.98;8.18;;;12.70;99.90;;;;;;6252388;28;20049;-80
2022/12/21 11:31:34;;;;;;;5.43;4.93;;;12.70;99.90;;;;;;6255882;28;20057;-81
2022/12/21 11:34:40;;;;;;;10.52;7.72;;;12.80;99.90;;;;;;6253592;28;20440;-80
2022/12/21 11:37:46;;;;;;;3.38;1.80;;;12.80;99.90;;;;;;6250364;28;20412;-80
2022/12/21 11:40:56;;;;;;;4.20;1.77;;;12.90;99.90;;;;;;6250195;28;20132;-81
2022/12/21 11:43:57;;;;;;;13.65;5.10;;;12.90;99.90;;;;;;6253075;28;20526;-80
2022/12/21 11:47:16;;;;;;;4.00;2.95;;;13.00;99.90;;;;;;6253471;28;20041;-81
2022/12/21 11:50:25;;;;;;;;;;;13.00;99.90;;;;;;6248282;28;20696;-81
2022/12/21 11:53:46;;;;;;;6.13;2.78;;;13.00;99.90;;;;;;6250356;28;19921;-81
2022/12/21 11:56:54;;;;;;;4.18;2.53;;;12.90;99.90;;;;;;6250495;28;20495;-80
2022/12/21 12:00:06;;;;;;;12.52;8.02;;;12.90;99.90;;;;;;6254106;28;20444;-82
2022/12/21 12:03:32;;;;;;;4.38;1.98;;;12.90;99.90;;;;;;6256126;28;20511;-81
2022/12/21 12:07:09;;;;;;;3.63;3.22;;;12.80;99.90;;;;;;6256491;28;20052;-80
2022/12/21 12:10:27;;;;;;;4.63;2.20;;;12.80;99.90;;;;;;6255219;28;20049;-81
2022/12/21 12:13:40;;;;;;;;;;;12.70;99.90;;;;;;6255977;28;20545;-81
2022/12/21 12:16:56;;;;;;;3.70;2.65;;;12.70;99.90;;;;;;6253829;28;20298;-80
2022/12/21 12:20:09;;;;;;;2.80;1.83;;;12.80;99.90;;;;;;6252543;28;20511;-81
2022/12/21 12:23:19;;;;;;;5.35;4.85;;;12.80;99.90;;;;;;6253199;28;20045;-81
2022/12/21 12:26:31;;;;;;;5.30;3.00;;;12.90;99.90;;;;;;6259320;28;20042;-81
2022/12/21 12:29:46;;;;;;;3.17;1.50;;;13.00;99.90;;;;;;6258200;28;20117;-81
2022/12/21 12:33:07;;;;;;;2.13;1.80;;;13.00;99.90;;;;;;6260879;28;20046;-81
2022/12/21 12:36:24;;;;;;;3.90;2.67;;;12.90;99.90;;;;;;6253685;28;20072;-81
2022/12/21 12:39:33;;;;;;;1.83;1.73;;;13.00;99.90;;;;;;6241612;28;20045;-84
2022/12/21 12:42:40;;;;;;;3.80;1.90;;;13.00;99.90;;;;;;6248005;28;20049;-81
2022/12/21 12:45:55;;;;;;;3.58;2.00;;;13.00;99.90;;;;;;6256045;28;20045;-84
2022/12/21 12:49:07;;;;;;;4.75;2.30;;;13.10;99.90;;;;;;6256021;28;20049;-83
2022/12/21 12:52:23;;;;;;;6.05;1.85;;;13.10;99.90;;;;;;6255569;28;20048;-82
2022/12/21 12:55:32;;;;;;;1.70;1.60;;;13.20;99.90;;;;;;6247253;28;20045;-82
2022/12/21 12:58:45;;;;;;;5.28;3.00;;;13.20;99.90;;;;;;6254856;28;20406;-82
2022/12/21 13:02:06;;;;;;;3.03;1.73;;;13.20;99.90;;;;;;6260806;28;20057;-84
2022/12/21 13:05:24;;;;;;;6.20;1.90;;;13.40;99.90;;;;;;6254146;28;20466;-84
2022/12/21 13:08:44;;;;;;;3.45;3.03;;;13.50;99.90;;;;;;6252901;28;20045;-82
2022/12/21 13:11:54;;;;;;;4.90;1.88;;;13.60;99.90;;;;;;6257555;28;20049;-82
2022/12/21 13:15:01;;;;;;;4.05;2.28;;;13.60;99.90;;;;;;6254834;28;20140;-83
2022/12/21 13:18:12;;;;;;;3.70;1.85;;;13.70;99.90;;;;;;6252884;28;20068;-85
2022/12/21 13:21:17;;;;;;;4.20;2.05;;;13.70;99.90;;;;;;6245625;28;20124;-83
2022/12/21 13:24:24;;;;;;;4.03;2.25;;;13.70;99.90;;;;;;6253084;28;20045;-81
2022/12/21 13:27:29;;;;;;;7.95;1.98;;;13.70;99.90;;;;;;6253160;28;20116;-82
2022/12/21 13:30:34;;;;;;;1.63;1.20;;;13.70;99.90;;;;;;6252594;28;20065;-82
2022/12/21 13:33:44;;;;;;;2.83;1.55;;;13.70;99.90;;;;;;6254174;28;20492;-84
2022/12/21 13:36:47;;;;;;;2.10;1.63;;;13.70;99.90;;;;;;6253714;28;20507;-83
2022/12/21 13:39:59;;;;;;;7.38;1.90;;;13.70;99.90;;;;;;6253290;28;20050;-83
2022/12/21 13:43:08;;;;;;;1.98;1.52;;;13.60;99.90;;;;;;6254578;28;20141;-83
2022/12/21 13:46:10;;;;;;;3.42;1.80;;;13.60;99.90;;;;;;6253669;28;20053;-81
2022/12/21 13:49:22;;;;;;;3.50;1.98;;;13.60;99.90;;;;;;6255073;28;20073;-84
2022/12/21 13:52:31;;;;;;;5.03;1.83;;;13.50;99.90;;;;;;6233885;28;20060;-83
2022/12/21 13:55:51;;;;;;;2.88;2.67;;;13.50;99.90;;;;;;6248319;28;20076;-87
2022/12/21 13:58:56;;;;;;;5.72;1.45;;;13.50;99.90;;;;;;6247906;28;20042;-84
2022/12/21 14:02:04;;;;;;;2.53;1.40;;;13.50;99.90;;;;;;6252138;28;20458;-84
2022/12/21 14:05:13;;;;;;;3.70;3.40;;;13.50;99.90;;;;;;6252236;28;20056;-83
2022/12/21 14:08:41;;;;;;;4.82;3.28;;;13.50;99.90;;;;;;6248643;28;20053;-85
2022/12/21 14:12:19;;;;;;;8.55;5.47;;;13.40;99.90;;;;;;6251024;28;20045;-83
2022/12/21 14:15:33;;;;;;;5.38;4.05;;;13.40;99.90;;;;;;6239895;28;20092;-82
2022/12/21 14:18:37;;;;;;;2.30;1.80;;;13.30;99.90;;;;;;6253208;28;20522;-81
2022/12/21 14:21:46;;;;;;;8.52;6.32;;;13.10;99.90;;;;;;6251910;28;20503;-82
2022/12/21 14:24:48;;;;;;;2.80;2.38;;;13.10;99.90;;;;;;6250020;28;20046;-84
2022/12/21 14:28:11;;;;;;;5.82;3.63;;;13.00;99.90;;;;;;6250441;28;20450;-82
2022/12/21 14:31:19;;;;;;;4.35;2.97;;;12.80;99.90;;;;;;6243300;28;20056;-81
2022/12/21 14:34:21;;;;;;;2.75;2.38;;;12.70;99.90;;;;;;6250946;28;20045;-82
2022/12/21 14:37:25;;;;;;;5.25;3.55;;;12.60;99.90;;;;;;6251877;28;20258;-82
2022/12/21 14:40:27;;;;;;;4.05;3.33;;;12.60;99.90;;;;;;6251093;28;20061;-81
2022/12/21 14:43:30;;;;;;;8.30;3.85;;;12.50;99.90;;;;;;6247017;28;20048;-80
2022/12/21 14:46:31;;;;;;;5.72;3.72;;;12.40;99.90;;;;;;6249038;28;20049;-83
2022/12/21 14:49:35;;;;;;;7.80;3.83;;;12.40;99.90;;;;;;6252812;28;20065;-82
2022/12/21 14:52:36;;;;;;;4.03;3.63;;;12.40;99.90;;;;;;6252961;28;20045;-82
2022/12/21 14:56:03;;;;;;;8.18;4.75;;;12.30;99.90;;;;;;6252083;28;20053;-81
2022/12/21 14:59:07;;;;;;;7.47;4.20;;;12.20;99.90;;;;;;6244072;28;20052;-81
2022/12/21 15:02:22;;;;;;;10.63;3.63;;;12.20;99.90;;;;;;6231603;28;20408;-82
2022/12/21 15:05:33;;;;;;;6.53;3.67;;;12.10;99.90;;;;;;6252552;28;20484;-82
2022/12/21 15:08:41;;;;;;;6.25;2.90;;;12.00;99.90;;;;;;6253243;28;20045;-82
2022/12/21 15:11:45;;;;;;;25.77;14.05;;;12.00;99.90;;;;;;6247362;28;20050;-81
2022/12/21 15:14:53;;;;;;;4.78;3.05;;;11.90;99.90;;;;;;6248199;28;20056;-83
2022/12/21 15:17:58;;;;;;;8.23;4.88;;;12.00;99.90;;;;;;6250538;28;20065;-82
2022/12/21 15:21:42;;;;;;;5.60;1.80;;;11.90;99.90;;;;;;6252351;28;20045;-83
2022/12/21 15:24:54;;;;;;;29.75;15.40;;;11.90;99.90;;;;;;6253615;28;20124;-81
2022/12/21 15:28:01;;;;;;;3.13;2.65;;;11.90;99.90;;;;;;6248840;28;20045;-82
2022/12/21 15:31:16;;;;;;;2.92;2.50;;;11.90;99.90;;;;;;6229284;28;20045;-82
2022/12/21 15:34:23;;;;;;;8.48;6.03;;;11.80;99.90;;;;;;6243542;28;21355;-82
2022/12/21 15:37:28;;;;;;;8.00;5.80;;;11.80;99.90;;;;;;6258119;28;20049;-82
2022/12/21 15:40:33;;;;;;;12.15;9.20;;;11.70;99.90;;;;;;6254352;28;20057;-85
2022/12/21 15:43:40;;;;;;;17.30;15.23;;;11.70;99.90;;;;;;6254933;28;20046;-82
2022/12/21 15:46:49;;;;;;;12.23;11.00;;;11.70;99.90;;;;;;6255947;28;20042;-82
2022/12/21 15:49:56;;;;;;;8.35;6.22;;;11.60;99.90;;;;;;6256177;28;20053;-83
2022/12/21 15:52:58;;;;;;;5.85;4.65;;;11.70;99.90;;;;;;6257537;28;20057;-83
2022/12/21 15:56:00;;;;;;;6.30;4.82;;;11.60;99.90;;;;;;6238135;28;20049;-83
2022/12/21 15:59:03;;;;;;;7.63;6.82;;;11.50;99.90;;;;;;6258793;28;20052;-81
2022/12/21 16:02:17;;;;;;;6.90;5.53;;;11.50;99.90;;;;;;6255599;28;20573;-82
2022/12/21 16:05:21;;;;;;;8.40;5.35;;;11.50;99.90;;;;;;6247697;28;20050;-78
2022/12/21 16:08:23;;;;;;;6.55;5.70;;;11.50;99.90;;;;;;6257702;28;20044;-83
2022/12/21 16:11:31;;;;;;;6.72;6.10;;;11.50;99.90;;;;;;6262462;28;20045;-80
2022/12/21 16:14:34;;;;;;;9.25;6.97;;;11.50;99.90;;;;;;6251281;28;20092;-81
2022/12/21 16:17:37;;;;;;;7.22;5.82;;;11.50;99.90;;;;;;6253362;28;20541;-80
2022/12/21 16:20:43;;;;;;;12.18;7.50;;;11.50;99.90;;;;;;6253815;28;20045;-80
2022/12/21 16:23:47;;;;;;;14.50;8.50;;;11.50;99.90;;;;;;6255588;28;20050;-80